Currently 81°F in San Jacinto, California, USA
81°F
94°F / 59°F
1 mph SE
0.00"
Sunday, September 22, 2019 7:43 PM PDT

San Jacinto, California Weather Summary
Last 36 Hours

Temperature Winds Hourly Humidity Dewpoint
Time Report Norm Report Norm Max Gusts Precip. Rpt. Norm Rpt. Norm Pressure
1Sun 07:43 PM  81.3°F  75°F  1 mph SE  2 mph  5 mph  0.00"  30%  45%  46°F  52°F  29.88"
Sun 07:00 PM  82.8°F  78°F  1 mph S  3 mph  15 mph  0.00"  28%  40%  45°F  51°F  29.86"
Sun 06:00 PM  85.5°F  82°F  8 mph SW  4 mph  22 mph  0.00"  27%  34%  47°F  49°F  29.85"
Sun 05:00 PM  88.9°F  85°F  10 mph S  5 mph  18 mph  0.00"  24%  29%  46°F  48°F  29.82"
Sun 04:00 PM  93.7°F  86°F  7 mph W  5 mph  26 mph  0.00"  12%  25%  32°F  46°F  29.82"
2Sun 03:20 PM  93.9°F  87°F  4 mph W  4 mph  10 mph  ----  12%  24%  32°F  45°F  29.82"
Sun 03:00 PM  93.6°F  87°F  5 mph N  4 mph  13 mph  0.00"  11%  24%  29°F  45°F  29.83"
Sun 02:00 PM  91.9°F  86°F  2 mph W  4 mph  11 mph  0.00"  11%  25%  28°F  45°F  29.84"
Sun 01:00 PM  91.9°F  84°F  5 mph NW  3 mph  10 mph  0.00"  11%  28%  28°F  46°F  29.86"
Sun 12:00 PM  91.4°F  81°F  5 mph NW  3 mph  10 mph  0.00"  11%  33%  28°F  48°F  29.88"
Sun 11:00 AM  89.4°F  78°F  2 mph SW  2 mph  9 mph  0.00"  14%  38%  32°F  49°F  29.89"
Sun 10:00 AM  81.3°F  73°F  3 mph W  1 mph  6 mph  0.00"  24%  46%  40°F  50°F  29.90"
Sun 09:00 AM  73.0°F  68°F  1 mph W  1 mph  3 mph  0.00"  31%  54%  39°F  50°F  29.90"
Sun 08:00 AM  65.1°F  63°F  calm  1 mph  3 mph  0.00"  46%  63%  43°F  49°F  29.89"
3Sun 07:01 AM  59.4°F  59°F  calm  calm  none  ----  49%  68%  39°F  48°F  29.88"
Sun 07:00 AM  59.5°F  59°F  calm  calm  none  0.00"  49%  68%  40°F  48°F  29.88"
Sun 06:00 AM  61.0°F  59°F  calm  calm  none  0.00"  48%  68%  40°F  49°F  29.86"
Sun 05:00 AM  61.2°F  60°F  calm  calm  none  0.00"  52%  68%  43°F  49°F  29.85"
Sun 04:00 AM  62.2°F  61°F  calm  calm  1 mph  0.00"  49%  66%  42°F  49°F  29.85"
Sun 03:00 AM  64.9°F  62°F  calm  calm  5 mph  0.00"  44%  65%  42°F  50°F  29.85"
Sun 02:00 AM  65.7°F  63°F  calm  calm  1 mph  0.00"  43%  64%  42°F  50°F  29.86"
Sun 01:00 AM  66.9°F  65°F  calm  calm  none  0.00"  45%  62%  44°F  51°F  29.87"
Sun 12:00 AM  69.1°F  66°F  calm  1 mph  none  0.00"  42%  61%  44°F  52°F  29.87"
Sat 11:00 PM  72.3°F  68°F  calm  1 mph  3 mph  0.00"  40%  58%  46°F  52°F  29.87"
Sat 10:00 PM  75.7°F  70°F  1 mph SE  1 mph  6 mph  0.00"  37%  56%  47°F  53°F  29.87"
Sat 09:00 PM  78.6°F  72°F  1 mph SW  1 mph  3 mph  0.00"  42%  52%  53°F  53°F  29.85"
Sat 08:00 PM  80.8°F  74°F  3 mph SW  2 mph  6 mph  0.00"  38%  47%  52°F  52°F  29.83"
Sat 07:00 PM  83.5°F  77°F  3 mph S  3 mph  11 mph  0.00"  36%  41%  53°F  51°F  29.80"
Sat 06:00 PM  91.6°F  81°F  3 mph S  5 mph  15 mph  0.00"  13%  35%  32°F  50°F  29.78"
Sat 05:00 PM  92.1°F  84°F  5 mph NW  5 mph  11 mph  0.00"  13%  30%  32°F  48°F  29.77"
Sat 04:00 PM  93.0°F  86°F  5 mph SW  5 mph  14 mph  0.00"  12%  26%  31°F  46°F  29.77"
Sat 03:00 PM  92.5°F  86°F  2 mph W  4 mph  11 mph  0.00"  11%  25%  28°F  45°F  29.78"
Sat 02:00 PM  90.7°F  85°F  4 mph SE  3 mph  11 mph  0.00"  13%  26%  31°F  46°F  29.80"
Sat 01:00 PM  90.7°F  84°F  2 mph S  3 mph  11 mph  0.00"  14%  29%  33°F  47°F  29.83"
Sat 12:00 PM  87.1°F  81°F  4 mph NW  3 mph  11 mph  0.00"  17%  34%  35°F  49°F  29.85"
Sat 11:00 AM  79.7°F  77°F  2 mph W  2 mph  6 mph  0.00"  40%  39%  52°F  49°F  29.89"
Sat 10:00 AM  73.4°F  73°F  calm  1 mph  2 mph  0.00"  49%  46%  52°F  50°F  29.91"
Sat 09:00 AM  67.6°F  68°F  calm  1 mph  none  0.00"  57%  54%  51°F  50°F  29.91"
Sat 08:00 AM  61.2°F  62°F  calm  1 mph  none  0.00"  67%  63%  50°F  49°F  29.91"

  1. Current weather data. No green row appears if the current weather data is also the high or low for the current day.
  2. High temperature for the current day.
  3. Low temperature for the current day.

The San Jacinto, California weather pages are a service of WeatherCurrents. San Jacinto is located in the heart of the San Jacinto Valley, near Hemet, the Soboba Casino, and at the foot of the San Jacinto Mountains.
Copyright ©2019  WeatherCurrents. All rights reserved. - Submit questions and comments - Privacy Policy

This page automatically refreshes every 10 minutes.